This is the latest recevied weather packets stored in our database for station/object W0CHP-13. If no packets are shown the sender has not sent any weather packets the latest 10 day(s).
| Time | Temp. | Humidity | Pressure | Rain* | Wind** | Luminosity | Snow |
|---|---|---|---|---|---|---|---|
| 1788473115 | 30.56° C | 63% | 1009.2 hPa | - | - | 265 W/m² | - |
| 1788472518 | 31.11° C | 61% | 1009.6 hPa | - | - | 310 W/m² | - |
| 1788471916 | 31.11° C | 59% | 1009.2 hPa | - | - | 304 W/m² | - |
| 1788471318 | 31.11° C | 59% | 1009.2 hPa | - | - | 370 W/m² | - |
| 1788470716 | 31.11° C | 60% | 1009.2 hPa | - | - | 400 W/m² | - |
| 1788470115 | 30.56° C | 61% | 1009.6 hPa | - | - | 425 W/m² | - |
| 1788469517 | 30.56° C | 61% | 1009.6 hPa | - | - | 451 W/m² | - |
| 1788468915 | 31.11° C | 60% | 1009.6 hPa | - | - | 477 W/m² | - |
| 1788468318 | 31.11° C | 60% | 1009.6 hPa | - | - | 507 W/m² | - |
| 1788467717 | 30.56° C | 59% | 1009.6 hPa | - | - | 537 W/m² | - |
| 1788467117 | 30° C | 63% | 1009.6 hPa | - | - | 584 W/m² | - |
| 1788466516 | 29.44° C | 66% | 1009.6 hPa | - | - | 571 W/m² | - |
| 1788465918 | 28.89° C | 67% | 1009.6 hPa | - | - | 236 W/m² | - |
| 1788465316 | 29.44° C | 67% | 1009.6 hPa | - | - | 360 W/m² | - |
| 1788464715 | 29.44° C | 70% | 1009.9 hPa | - | - | 394 W/m² | - |
| 1788464118 | 28.89° C | 69% | 1010.3 hPa | - | - | 193 W/m² | - |
| 1788463517 | 28.89° C | 69% | 1010.6 hPa | - | - | 129 W/m² | - |
| 1788462915 | 29.44° C | 67% | 1010.6 hPa | - | - | 207 W/m² | - |
| 1788462317 | 28.89° C | 68% | 1010.6 hPa | - | - | 351 W/m² | - |
| 1788461718 | 28.89° C | 70% | 1010.6 hPa | - | - | 614 W/m² | - |
| 1788461116 | 28.89° C | 69% | 1010.6 hPa | - | - | 437 W/m² | - |
| 1788460518 | 27.22° C | 73% | 1010.3 hPa | - | - | 604 W/m² | - |
| 1788459916 | 27.22° C | 73% | 1010.3 hPa | - | - | 209 W/m² | - |
| 1788459318 | 27.22° C | 73% | 1010.2 hPa | - | - | 401 W/m² | - |
| 1788458717 | 26.67° C | 75% | 1010 hPa | - | - | 406 W/m² | - |
* Rain since midnight (hover to see other rain measurements)
** Current wind speed in m/s (hover to see current wind gust speed)